Time;durP1;ratioP1;P1;durP2;ratioP2;P2;SDS_P1;SDS_P2;PMS_P1;PMS_P2;Temp;Humidity;BMP_temperature;BMP_pressure;BME280_temperature;BME280_humidity;BME280_pressure;Samples;Min_cycle;Max_cycle;Signal;HPM_P1;HPM_P2
2022/06/29 00:00:17;;;;;;;;;;;;;;;32.23;35.90;99128.47;4406127;32;34499;-88
2022/06/29 00:02:44;;;;;;;;;;;;;;;32.27;35.87;99123.72;4404768;32;34302;-88
2022/06/29 00:05:13;;;;;;;;;;;;;;;32.23;35.96;99122.25;4404185;32;32081;-89
2022/06/29 00:07:40;;;;;;;;;;;;;;;32.15;36.14;99124.66;4403716;32;34312;-85
2022/06/29 00:10:08;;;;;;;;;;;;;;;32.26;35.84;99118.47;4405935;32;34191;-89
2022/06/29 00:12:36;;;;;;;;;;;;;;;32.10;36.04;99116.13;4404525;32;34467;-89
2022/06/29 00:15:04;;;;;;;;;;;;;;;32.12;35.92;99111.47;4405247;32;33107;-90
2022/06/29 00:17:31;;;;;;;;;;;;;;;31.93;36.01;99115.56;4405961;32;34120;-85
2022/06/29 00:20:00;;;;;;;;;;;;;;;32.00;35.87;99109.75;4404579;32;34342;-89
2022/06/29 00:22:28;;;;;;;;;;;;;;;31.96;35.79;99117.19;4404587;32;33826;-89
2022/06/29 00:24:55;;;;;;;;;;;;;;;31.98;35.67;99108.06;4404039;32;33436;-89
2022/06/29 00:27:23;;;;;;;;;;;;;;;31.93;35.79;99104.84;4404724;32;34163;-89
2022/06/29 00:29:50;;;;;;;;;;;;;;;31.98;35.73;99107.19;4405512;32;34347;-89
2022/06/29 00:32:17;;;;;;;;;;;;;;;32.00;35.63;99094.50;4391365;32;33487;-89
2022/06/29 00:34:45;;;;;;;;;;;;;;;31.97;35.61;99092.94;4404815;32;34267;-89
2022/06/29 00:37:12;;;;;;;;;;;;;;;31.92;35.89;99092.41;4403863;32;34951;-89
2022/06/29 00:39:40;;;;;;;;;;;;;;;31.86;35.97;99084.88;4404521;32;35276;-90
2022/06/29 00:42:07;;;;;;;;;;;;;;;31.81;36.00;99078.94;4403738;32;33672;-89
2022/06/29 00:44:34;;;;;;;;;;;;;;;31.70;36.37;99076.22;4405249;32;33769;-90
2022/06/29 00:47:05;;;;;;;;;;;;;;;31.83;36.06;99082.38;4405123;32;35010;-89
2022/06/29 00:49:33;;;;;;;;;;;;;;;31.88;36.03;99082.91;4403716;32;34787;-89
2022/06/29 00:52:19;;;;;;;;;;;;;;;31.86;36.03;99079.50;4404005;32;33766;-86
2022/06/29 00:54:52;;;;;;;;;;;;;;;31.89;35.82;99079.25;4403545;32;33459;-89
2022/06/29 00:57:20;;;;;;;;;;;;;;;31.81;36.12;99073.59;4391022;32;34875;-89
2022/06/29 00:59:49;;;;;;;;;;;;;;;31.81;36.01;99072.72;4391259;32;33878;-89
2022/06/29 01:02:17;;;;;;;;;;;;;;;31.82;35.94;99079.78;4391843;32;33929;-88
2022/06/29 01:04:44;;;;;;;;;;;;;;;31.71;36.17;99073.44;4390952;32;33490;-85
2022/06/29 01:07:13;;;;;;;;;;;;;;;31.81;36.06;99073.59;4404765;32;34100;-89
2022/06/29 01:09:40;;;;;;;;;;;;;;;31.89;35.92;99065.84;4391274;32;34177;-88
2022/06/29 01:12:07;;;;;;;;;;;;;;;31.77;36.19;99069.44;4391347;32;34293;-88
2022/06/29 01:14:35;;;;;;;;;;;;;;;31.89;36.03;99073.03;4404713;32;33868;-88
2022/06/29 01:17:03;;;;;;;;;;;;;;;31.79;36.08;99066.66;4390939;32;34728;-87
2022/06/29 01:19:30;;;;;;;;;;;;;;;31.80;36.00;99077.25;4405930;32;35298;-88
2022/06/29 01:21:58;;;;;;;;;;;;;;;31.80;35.96;99082.59;4406533;32;34531;-88
2022/06/29 01:24:25;;;;;;;;;;;;;;;31.84;35.77;99083.22;4393130;32;33397;-88
2022/06/29 01:26:53;;;;;;;;;;;;;;;31.72;35.99;99074.31;4393254;32;33895;-88
2022/06/29 01:29:20;;;;;;;;;;;;;;;31.64;36.11;99076.72;4407068;32;34397;-89
2022/06/29 01:31:51;;;;;;;;;;;;;;;31.82;35.92;99080.66;4406598;32;34206;-88
2022/06/29 01:34:18;;;;;;;;;;;;;;;31.62;36.32;99073.28;4392976;32;33645;-88
2022/06/29 01:36:45;;;;;;;;;;;;;;;31.57;36.43;99072.78;4407105;32;34953;-87
2022/06/29 01:39:13;;;;;;;;;;;;;;;31.43;36.66;99063.94;4392638;32;34019;-88
2022/06/29 01:41:40;;;;;;;;;;;;;;;31.22;37.25;99066.38;4380140;32;35789;-88
2022/06/29 01:44:07;;;;;;;;;;;;;;;31.38;37.07;99062.59;4393019;32;34009;-87
2022/06/29 01:46:35;;;;;;;;;;;;;;;31.47;36.87;99052.03;4406552;32;34932;-88
2022/06/29 01:49:02;;;;;;;;;;;;;;;31.56;36.57;99047.81;4391906;32;33648;-89
2022/06/29 01:51:30;;;;;;;;;;;;;;;31.35;37.00;99052.94;4394721;32;33993;-88
2022/06/29 01:53:58;;;;;;;;;;;;;;;31.59;36.45;99049.38;4395776;32;33131;-87
2022/06/29 01:56:25;;;;;;;;;;;;;;;31.38;36.81;99054.56;4408374;32;35130;-87
2022/06/29 01:58:52;;;;;;;;;;;;;;;31.51;36.64;99044.59;4408532;32;33838;-88
2022/06/29 02:01:20;;;;;;;;;;;;;;;30.89;38.45;99048.28;4421993;32;34619;-89
2022/06/29 02:03:50;;;;;;;;;;;;;;;31.41;37.50;99044.47;4407961;32;33801;-87
2022/06/29 02:06:18;;;;;;;;;;;;;;;31.45;37.26;99050.44;4408232;32;34133;-88
2022/06/29 02:08:46;;;;;;;;;;;;;;;31.54;36.93;99047.06;4421703;32;32635;-88
2022/06/29 02:11:13;;;;;;;;;;;;;;;31.55;36.91;99045.22;4421631;32;34356;-89
2022/06/29 02:13:41;;;;;;;;;;;;;;;31.56;36.91;99042.47;4408090;32;33795;-87
2022/06/29 02:16:08;;;;;;;;;;;;;;;31.48;37.08;99040.34;4407906;32;33817;-89
2022/06/29 02:18:36;;;;;;;;;;;;;;;31.52;37.03;99040.09;4407872;32;34597;-89
2022/06/29 02:21:03;;;;;;;;;;;;;;;31.25;37.61;99046.53;4408150;32;35320;-89
2022/06/29 02:23:30;;;;;;;;;;;;;;;31.11;37.74;99041.37;4421533;32;33552;-90
2022/06/29 02:25:57;;;;;;;;;;;;;;;30.83;38.33;99040.69;4421464;32;34729;-89
2022/06/29 02:28:25;;;;;;;;;;;;;;;30.90;38.26;99041.94;4421236;32;34172;-89
2022/06/29 02:36:24;;;;;;;;;;;;;;;30.34;39.40;99041.50;4395043;32;34175;-88
2022/06/29 02:38:51;;;;;;;;;;;;;;;29.84;40.21;99047.66;4405475;32;33209;-88
2022/06/29 02:41:19;;;;;;;;;;;;;;;30.53;39.23;99046.38;4421294;32;34352;-88
2022/06/29 02:43:46;;;;;;;;;;;;;;;30.25;39.57;99042.16;4421791;32;33842;-88
2022/06/29 02:46:14;;;;;;;;;;;;;;;30.43;39.26;99046.22;4421678;32;34909;-88
2022/06/29 02:48:41;;;;;;;;;;;;;;;30.91;38.29;99040.13;4421708;32;34113;-88
2022/06/29 02:51:08;;;;;;;;;;;;;;;31.10;37.84;99040.47;4421247;32;34351;-89
2022/06/29 02:53:36;;;;;;;;;;;;;;;31.18;37.64;99037.25;4407440;32;32782;-87
2022/06/29 02:56:03;;;;;;;;;;;;;;;31.06;37.85;99032.78;4407304;32;33130;-87
2022/06/29 02:58:30;;;;;;;;;;;;;;;31.03;37.88;99033.91;4421337;32;34359;-87
2022/06/29 03:00:58;;;;;;;;;;;;;;;30.92;38.35;99031.16;4395421;32;35290;-88
2022/06/29 03:03:25;;;;;;;;;;;;;;;30.73;38.43;99035.13;4421547;32;33501;-85
2022/06/29 03:05:52;;;;;;;;;;;;;;;30.28;39.21;99048.16;4421332;32;34172;-92
2022/06/29 03:08:20;;;;;;;;;;;;;;;30.72;38.49;99046.81;4421376;32;34272;-90
2022/06/29 03:10:49;;;;;;;;;;;;;;;30.00;39.67;99045.63;4421453;32;35195;-88
2022/06/29 03:13:16;;;;;;;;;;;;;;;30.16;39.32;99043.66;4421619;32;33684;-87
2022/06/29 03:15:44;;;;;;;;;;;;;;;29.76;40.16;99043.69;4420693;32;34346;-86
2022/06/29 03:18:11;;;;;;;;;;;;;;;30.47;38.59;99041.50;4421305;32;34070;-89
2022/06/29 03:20:38;;;;;;;;;;;;;;;30.67;38.05;99042.75;4421285;32;35210;-89
2022/06/29 03:23:05;;;;;;;;;;;;;;;29.63;40.24;99052.66;4421458;32;33524;-92
2022/06/29 03:25:33;;;;;;;;;;;;;;;28.92;41.44;99040.37;4407157;32;33140;-89
2022/06/29 03:28:00;;;;;;;;;;;;;;;29.75;39.98;99038.47;4407330;32;34503;-90
2022/06/29 03:30:27;;;;;;;;;;;;;;;29.50;40.39;99048.09;4407300;32;35287;-89
2022/06/29 03:32:54;;;;;;;;;;;;;;;29.82;39.71;99050.44;4420390;32;34292;-87
2022/06/29 03:35:22;;;;;;;;;;;;;;;29.65;40.03;99058.75;4420894;32;34221;-88
2022/06/29 03:37:50;;;;;;;;;;;;;;;29.13;41.16;99052.34;4421053;32;34018;-85
2022/06/29 03:40:17;;;;;;;;;;;;;;;28.46;42.69;99056.63;4420973;32;35151;-89
2022/06/29 03:42:45;;;;;;;;;;;;;;;29.11;41.29;99054.25;4405847;32;33586;-88
2022/06/29 03:45:12;;;;;;;;;;;;;;;29.15;41.48;99047.75;4420910;32;35045;-91
2022/06/29 03:47:39;;;;;;;;;;;;;;;29.47;41.00;99060.78;4421194;32;34498;-87
2022/06/29 03:50:07;;;;;;;;;;;;;;;29.92;39.75;99064.03;4420488;32;34761;-90
2022/06/29 03:52:35;;;;;;;;;;;;;;;30.15;39.22;99063.28;4421533;32;33636;-89
2022/06/29 03:55:02;;;;;;;;;;;;;;;30.33;39.02;99069.22;4420964;32;34252;-85
2022/06/29 03:57:29;;;;;;;;;;;;;;;30.44;38.83;99065.78;4407236;32;33982;-85
2022/06/29 03:59:57;;;;;;;;;;;;;;;29.87;39.60;99060.81;4407289;32;34187;-89
2022/06/29 04:02:25;;;;;;;;;;;;;;;29.80;40.02;99052.34;4407292;32;34603;-88
2022/06/29 04:04:53;;;;;;;;;;;;;;;29.97;39.58;99048.56;4407455;32;34311;-87
2022/06/29 04:07:21;;;;;;;;;;;;;;;29.68;39.92;99045.19;4407335;32;34465;-85
2022/06/29 04:09:48;;;;;;;;;;;;;;;29.95;39.51;99045.09;4420980;32;34241;-88
2022/06/29 04:12:16;;;;;;;;;;;;;;;30.42;38.34;99041.84;4407419;32;34954;-88
2022/06/29 04:14:43;;;;;;;;;;;;;;;29.96;39.64;99058.34;4420587;32;33957;-86
2022/06/29 04:17:10;;;;;;;;;;;;;;;29.93;39.16;99047.91;4406939;32;33805;-88
2022/06/29 04:19:38;;;;;;;;;;;;;;;29.64;40.03;99051.69;4420296;32;34163;-87
2022/06/29 04:22:05;;;;;;;;;;;;;;;29.61;40.13;99052.75;4420732;32;34460;-87
2022/06/29 04:24:32;;;;;;;;;;;;;;;29.26;41.06;99052.41;4406737;32;33897;-89
2022/06/29 04:26:59;;;;;;;;;;;;;;;29.81;39.91;99049.59;4406657;32;33813;-85
2022/06/29 04:29:27;;;;;;;;;;;;;;;29.88;39.44;99052.69;4420469;32;34361;-88
2022/06/29 04:31:54;;;;;;;;;;;;;;;28.89;41.81;99060.09;4420959;32;34493;-90
2022/06/29 04:34:21;;;;;;;;;;;;;;;28.64;42.44;99059.94;4420249;32;34065;-88
2022/06/29 04:36:51;;;;;;;;;;;;;;;29.84;40.52;99058.34;4420591;32;37022;-89
2022/06/29 04:39:19;;;;;;;;;;;;;;;29.98;39.86;99056.44;4420799;32;35547;-84
2022/06/29 04:41:47;;;;;;;;;;;;;;;30.38;39.02;99055.50;4406469;32;32904;-91
2022/06/29 04:44:14;;;;;;;;;;;;;;;30.13;39.24;99056.34;4406421;32;34144;-91
2022/06/29 04:46:41;;;;;;;;;;;;;;;29.75;39.76;99058.03;4406231;32;34261;-87
2022/06/29 04:49:09;;;;;;;;;;;;;;;30.25;39.66;99060.88;4406304;32;32905;-87
2022/06/29 04:51:36;;;;;;;;;;;;;;;30.95;38.67;99063.91;4406438;32;34469;-83
2022/06/29 04:54:04;;;;;;;;;;;;;;;31.22;37.00;99052.12;4420824;32;34145;-88
2022/06/29 04:56:32;;;;;;;;;;;;;;;31.32;36.81;99058.53;4422162;32;34080;-89
2022/06/29 04:58:59;;;;;;;;;;;;;;;30.81;37.61;99066.72;4408406;32;34367;-88
2022/06/29 05:01:28;;;;;;;;;;;;;;;30.83;37.85;99058.56;4408296;32;33288;-86
2022/06/29 05:03:55;;;;;;;;;;;;;;;31.44;37.06;99049.59;4408635;32;34002;-91
2022/06/29 05:06:23;;;;;;;;;;;;;;;31.39;36.82;99051.75;4408382;32;33438;-89
2022/06/29 05:08:50;;;;;;;;;;;;;;;30.52;38.84;99052.72;4422351;32;33923;-85
2022/06/29 05:11:20;;;;;;;;;;;;;;;30.68;38.27;99061.34;4408313;32;33664;-91
2022/06/29 05:13:47;;;;;;;;;;;;;;;30.69;38.47;99054.19;4422300;32;35170;-87
2022/06/29 05:16:14;;;;;;;;;;;;;;;31.33;37.18;99057.59;4422456;32;34405;-89
2022/06/29 05:18:42;;;;;;;;;;;;;;;31.43;36.95;99058.59;4421404;32;33941;-89
2022/06/29 05:21:09;;;;;;;;;;;;;;;31.68;36.49;99060.28;4422192;32;32865;-91
2022/06/29 05:23:36;;;;;;;;;;;;;;;31.62;36.71;99067.91;4422622;32;33433;-87
2022/06/29 05:26:04;;;;;;;;;;;;;;;30.80;37.93;99067.69;4421944;32;35346;-90
2022/06/29 05:28:31;;;;;;;;;;;;;;;30.86;37.85;99064.56;4422180;32;34705;-90
2022/06/29 05:30:58;;;;;;;;;;;;;;;31.39;37.24;99067.81;4422664;32;33078;-88
2022/06/29 05:33:28;;;;;;;;;;;;;;;30.19;38.37;99075.53;4421914;32;34355;-90
2022/06/29 05:35:56;;;;;;;;;;;;;;;30.90;38.11;99058.00;4422018;32;34225;-90
2022/06/29 05:38:23;;;;;;;;;;;;;;;32.15;36.00;99062.97;4407887;32;35141;-90
2022/06/29 05:40:50;;;;;;;;;;;;;;;33.05;34.59;99058.50;4421703;32;34491;-88
2022/06/29 05:43:18;;;;;;;;;;;;;;;33.17;34.27;99059.31;4421815;32;34393;-92
2022/06/29 05:45:46;;;;;;;;;;;;;;;32.00;35.91;99050.75;4422128;32;34234;-91
2022/06/29 05:48:13;;;;;;;;;;;;;;;33.08;34.49;99046.66;4408142;32;34205;-84
2022/06/29 05:50:41;;;;;;;;;;;;;;;32.25;35.45;99045.19;4407447;32;31777;-85
2022/06/29 05:53:08;;;;;;;;;;;;;;;31.61;36.45;99056.34;4421393;32;34188;-87
2022/06/29 05:55:35;;;;;;;;;;;;;;;31.15;36.83;99051.72;4421994;32;34039;-89
2022/06/29 05:58:02;;;;;;;;;;;;;;;32.30;35.73;99048.34;4421997;32;35097;-93
2022/06/29 06:00:30;;;;;;;;;;;;;;;33.23;33.93;99045.38;4421934;32;33416;-91
2022/06/29 06:02:57;;;;;;;;;;;;;;;32.30;35.15;99045.69;4421978;32;35469;-82
2022/06/29 06:05:24;;;;;;;;;;;;;;;32.70;34.80;99046.06;4407464;32;33571;-92
2022/06/29 06:07:52;;;;;;;;;;;;;;;32.63;34.35;99046.69;4408168;32;35279;-87
2022/06/29 06:10:20;;;;;;;;;;;;;;;32.13;35.57;99040.81;4407769;32;33505;-83
2022/06/29 06:12:47;;;;;;;;;;;;;;;31.62;36.37;99036.62;4422204;32;34157;-88
2022/06/29 06:15:14;;;;;;;;;;;;;;;31.74;36.14;99034.81;4421548;32;35261;-90
2022/06/29 06:17:42;;;;;;;;;;;;;;;32.69;34.58;99038.13;4402386;32;33969;-90
2022/06/29 06:20:09;;;;;;;;;;;;;;;33.98;32.94;99040.87;4393098;32;34495;-89
2022/06/29 06:22:36;;;;;;;;;;;;;;;32.63;34.83;99041.31;4418205;32;34288;-86
2022/06/29 06:25:04;;;;;;;;;;;;;;;33.39;33.83;99032.37;4422048;32;34855;-89
2022/06/29 06:27:31;;;;;;;;;;;;;;;33.18;33.32;99044.91;4414214;32;33690;-95
2022/06/29 06:29:58;;;;;;;;;;;;;;;32.56;34.37;99043.63;4421831;32;34171;-90
2022/06/29 06:32:26;;;;;;;;;;;;;;;33.43;33.49;99038.34;4421983;32;33672;-93
2022/06/29 06:34:53;;;;;;;;;;;;;;;34.26;32.54;99040.25;4417247;32;34731;-91
2022/06/29 06:37:20;;;;;;;;;;;;;;;34.03;32.25;99049.47;4420734;32;34534;-93
2022/06/29 06:42:33;;;;;;;;;;;;;;;34.23;32.61;99043.19;4421810;32;34100;-88
2022/06/29 06:45:02;;;;;;;;;;;;;;;33.50;33.13;99041.41;4419025;32;34160;-90
2022/06/29 06:47:29;;;;;;;;;;;;;;;34.04;32.88;99035.88;4421793;32;34935;-84
2022/06/29 06:49:56;;;;;;;;;;;;;;;34.30;32.58;99033.59;4406106;32;32676;-90
2022/06/29 06:52:24;;;;;;;;;;;;;;;34.28;32.95;99030.19;4420895;32;35247;-95
2022/06/29 06:54:51;;;;;;;;;;;;;;;35.20;31.60;99024.72;4405008;32;33972;-90
2022/06/29 06:57:18;;;;;;;;;;;;;;;35.11;31.54;99020.16;4406266;32;35068;-95
2022/06/29 06:59:46;;;;;;;;;;;;;;;33.59;34.31;99024.50;4406437;32;33419;-86
2022/06/29 07:02:13;;;;;;;;;;;;;;;33.80;33.53;99028.06;4386768;32;33541;-82
2022/06/29 07:04:42;;;;;;;;;;;;;;;34.30;32.25;99025.53;4397457;32;34392;-84
2022/06/29 07:07:10;;;;;;;;;;;;;;;35.48;31.84;99014.06;4392210;32;35338;-84
2022/06/29 07:09:38;;;;;;;;;;;;;;;35.64;30.59;99016.22;4391903;32;33402;-86
2022/06/29 07:12:07;;;;;;;;;;;;;;;34.50;32.42;99023.78;4391250;32;34142;-88
2022/06/29 07:14:34;;;;;;;;;;;;;;;35.02;30.94;99010.22;4390041;32;34450;-95
2022/06/29 07:17:02;;;;;;;;;;;;;;;35.07;30.60;99008.78;4388082;32;33280;-86
2022/06/29 07:19:29;;;;;;;;;;;;;;;35.69;30.26;99003.16;4406465;32;33662;-86
2022/06/29 07:21:56;;;;;;;;;;;;;;;35.50;30.89;99007.59;4392431;32;35158;-85
2022/06/29 07:24:23;;;;;;;;;;;;;;;35.54;30.52;99008.16;4406006;32;34580;-90
2022/06/29 07:26:51;;;;;;;;;;;;;;;35.92;29.41;99009.94;4392274;32;35268;-86
2022/06/29 07:29:18;;;;;;;;;;;;;;;36.49;29.59;99009.94;4406567;32;34373;-90
2022/06/29 07:31:45;;;;;;;;;;;;;;;36.26;30.46;99010.28;4406733;32;34252;-94
2022/06/29 07:34:13;;;;;;;;;;;;;;;35.92;29.90;99009.94;4406038;32;34474;-83
2022/06/29 07:36:40;;;;;;;;;;;;;;;36.86;28.40;99003.59;4388717;32;34191;-89
2022/06/29 07:39:07;;;;;;;;;;;;;;;36.80;28.24;99002.37;4391981;32;34348;-88
2022/06/29 07:41:36;;;;;;;;;;;;;;;35.66;29.64;99007.00;4405741;32;34828;-87
2022/06/29 07:44:04;;;;;;;;;;;;;;;36.15;29.60;99005.06;4392420;32;35222;-84
2022/06/29 07:46:31;;;;;;;;;;;;;;;35.75;30.46;98999.88;4395233;32;34585;-94
2022/06/29 07:48:58;;;;;;;;;;;;;;;36.54;29.46;98999.53;4413540;32;33813;-90
2022/06/29 07:51:26;;;;;;;;;;;;;;;35.34;29.75;99001.84;4409350;32;34483;-93
2022/06/29 07:53:53;;;;;;;;;;;;;;;34.79;31.54;99002.34;4411996;32;34682;-94
2022/06/29 07:56:20;;;;;;;;;;;;;;;34.82;31.24;99007.47;4426500;32;34524;-91
2022/06/29 07:58:52;;;;;;;;;;;;;;;34.69;30.76;99017.63;4414507;32;33085;-95
2022/06/29 08:01:21;;;;;;;;;;;;;;;35.08;31.43;99010.53;4425405;32;34932;-86
2022/06/29 08:03:50;;;;;;;;;;;;;;;34.75;31.13;99011.69;4424563;32;34402;-87
2022/06/29 08:06:17;;;;;;;;;;;;;;;34.77;30.49;99001.63;4422847;32;34613;-94
2022/06/29 08:08:44;;;;;;;;;;;;;;;34.73;30.56;98996.66;4425335;32;33830;-96
2022/06/29 08:11:11;;;;;;;;;;;;;;;35.09;29.92;98996.06;4426121;32;34961;-96
2022/06/29 08:13:39;;;;;;;;;;;;;;;35.20;30.02;99003.16;4409403;32;33981;-91
2022/06/29 08:16:09;;;;;;;;;;;;;;;35.19;29.45;98993.34;4424418;32;34414;-96
2022/06/29 08:18:36;;;;;;;;;;;;;;;35.21;29.88;98996.75;4410950;32;33025;-96
2022/06/29 08:21:04;;;;;;;;;;;;;;;34.22;31.31;99014.59;4423738;32;35002;-89
2022/06/29 08:23:31;;;;;;;;;;;;;;;35.40;30.10;99001.31;4410318;32;34071;-92
2022/06/29 08:25:58;;;;;;;;;;;;;;;36.04;29.55;99011.47;4423186;32;34077;-95
2022/06/29 08:28:45;;;;;;;;;;;;;;;34.80;29.84;99005.88;4406292;32;32786;-92
2022/06/29 08:31:13;;;;;;;;;;;;;;;35.41;29.73;99002.16;4423661;32;34262;-96
2022/06/29 08:33:42;;;;;;;;;;;;;;;35.72;29.36;98995.59;4424060;32;34126;-90
2022/06/29 08:36:10;;;;;;;;;;;;;;;35.66;28.42;98996.22;4411862;32;34323;-95
2022/06/29 08:38:57;;;;;;;;;;;;;;;35.51;27.43;98982.31;4424953;32;34125;-89
2022/06/29 08:41:25;;;;;;;;;;;;;;;35.04;28.34;98989.38;4423821;32;33967;-95
2022/06/29 08:43:53;;;;;;;;;;;;;;;35.22;28.25;98982.28;4423560;32;34222;-88
2022/06/29 08:46:20;;;;;;;;;;;;;;;35.60;28.36;98985.13;4425492;32;34400;-83
2022/06/29 08:48:48;;;;;;;;;;;;;;;35.36;28.96;98994.50;4418079;32;33708;-90
2022/06/29 08:51:17;;;;;;;;;;;;;;;35.27;27.83;98982.72;4393112;32;33934;-92
2022/06/29 08:53:45;;;;;;;;;;;;;;;35.46;27.88;98994.47;4404975;32;34345;-88
2022/06/29 08:56:12;;;;;;;;;;;;;;;34.43;28.39;99005.59;4409221;32;34015;-88
2022/06/29 08:58:40;;;;;;;;;;;;;;;34.91;27.62;98991.47;4396803;32;33699;-90
2022/06/29 09:01:08;;;;;;;;;;;;;;;36.19;26.68;98987.56;4421240;32;34998;-82
2022/06/29 09:03:36;;;;;;;;;;;;;;;36.06;26.30;98992.44;4422952;32;34500;-89
2022/06/29 09:06:06;;;;;;;;;;;;;;;36.26;26.27;98986.00;4405678;32;34621;-91
2022/06/29 09:08:34;;;;;;;;;;;;;;;36.10;26.79;98982.19;4423876;32;33598;-92
2022/06/29 09:11:20;;;;;;;;;;;;;;;36.41;25.28;98986.34;4424008;32;34166;-92
2022/06/29 09:13:48;;;;;;;;;;;;;;;35.68;25.94;98988.81;4424091;32;34971;-91
2022/06/29 09:16:15;;;;;;;;;;;;;;;35.70;26.87;98986.81;4409749;32;34560;-96
2022/06/29 09:18:42;;;;;;;;;;;;;;;35.87;25.95;98987.06;4408793;32;33609;-95
2022/06/29 09:21:10;;;;;;;;;;;;;;;36.16;26.29;98979.78;4409130;32;34215;-84
2022/06/29 09:23:37;;;;;;;;;;;;;;;35.67;27.12;98976.31;4414522;32;34494;-91
2022/06/29 09:26:04;;;;;;;;;;;;;;;35.78;26.80;98978.84;4413915;32;34177;-89
2022/06/29 09:28:32;;;;;;;;;;;;;;;36.10;25.90;98969.56;4418865;32;34618;-84
2022/06/29 09:31:00;;;;;;;;;;;;;;;36.59;26.59;98972.06;4420792;32;34232;-86
2022/06/29 09:33:28;;;;;;;;;;;;;;;37.17;25.58;98971.72;4421685;32;35161;-85
2022/06/29 09:36:09;;;;;;;;;;;;;;;37.29;24.93;98972.31;4422368;32;34036;-85
2022/06/29 09:38:36;;;;;;;;;;;;;;;36.76;26.87;98972.09;4407554;32;33217;-82
2022/06/29 09:41:04;;;;;;;;;;;;;;;36.29;26.19;98968.62;4399943;32;34038;-83
2022/06/29 09:43:32;;;;;;;;;;;;;;;37.08;25.79;98970.75;4414383;32;35517;-92
2022/06/29 09:46:00;;;;;;;;;;;;;;;36.27;25.59;98976.88;4408687;32;34452;-88
2022/06/29 09:48:29;;;;;;;;;;;;;;;36.06;25.43;98971.69;4422227;32;34478;-94
2022/06/29 09:50:56;;;;;;;;;;;;;;;36.76;25.12;98955.06;4404471;32;33804;-84
2022/06/29 09:53:39;;;;;;;;;;;;;;;36.92;25.37;98959.75;4410681;32;34083;-94
2022/06/29 09:56:07;;;;;;;;;;;;;;;36.82;25.97;98967.06;4419964;32;34524;-85
2022/06/29 09:58:34;;;;;;;;;;;;;;;37.55;24.41;98962.41;4407869;32;33652;-87
2022/06/29 10:03:48;;;;;;;;;;;;;;;37.11;24.21;98951.53;4396166;32;34415;-91
2022/06/29 10:06:16;;;;;;;;;;;;;;;38.14;23.33;98941.81;4406645;32;34107;-91
2022/06/29 10:08:43;;;;;;;;;;;;;;;37.04;25.09;98945.03;4395237;32;33514;-82
2022/06/29 10:14:12;;;;;;;;;;;;;;;37.71;22.23;98935.47;4422023;32;34633;-81
2022/06/29 10:16:41;;;;;;;;;;;;;;;36.90;22.31;98938.31;4407510;32;35225;-94
2022/06/29 10:19:09;;;;;;;;;;;;;;;37.51;22.49;98944.81;4393688;32;34558;-81
2022/06/29 10:21:36;;;;;;;;;;;;;;;37.53;22.65;98939.22;4408158;32;34189;-87
2022/06/29 10:24:03;;;;;;;;;;;;;;;37.80;22.39;98935.53;4408056;32;34196;-94
2022/06/29 10:26:32;;;;;;;;;;;;;;;38.37;21.92;98922.31;4422243;32;34217;-89
2022/06/29 10:29:05;;;;;;;;;;;;;;;38.27;21.39;98913.47;4415531;32;33312;-86
2022/06/29 10:31:51;;;;;;;;;;;;;;;38.19;22.14;98923.25;4421935;32;33782;-90
2022/06/29 10:34:28;;;;;;;;;;;;;;;37.81;22.33;98913.72;4422787;32;35228;-88
2022/06/29 10:36:59;;;;;;;;;;;;;;;37.62;22.65;98912.09;4422675;32;34540;-86
2022/06/29 10:39:26;;;;;;;;;;;;;;;37.15;22.54;98916.94;4417940;32;33700;-86
2022/06/29 10:44:57;;;;;;;;;;;;;;;37.92;21.69;98918.03;4417437;32;34965;-89
2022/06/29 10:47:25;;;;;;;;;;;;;;;37.52;22.04;98900.53;4407343;32;34714;-86
2022/06/29 10:50:11;;;;;;;;;;;;;;;37.08;23.07;98903.19;4404354;32;33516;-89
2022/06/29 10:52:38;;;;;;;;;;;;;;;37.18;23.39;98903.97;4402172;32;33374;-86
2022/06/29 10:55:08;;;;;;;;;;;;;;;37.81;24.21;98907.44;4417595;32;33922;-86
2022/06/29 10:57:36;;;;;;;;;;;;;;;36.81;23.23;98900.56;4403277;32;34072;-86
2022/06/29 11:00:07;;;;;;;;;;;;;;;37.90;22.97;98903.81;4418718;32;32986;-83
2022/06/29 11:02:34;;;;;;;;;;;;;;;38.37;22.30;98889.81;4405918;32;34973;-83
2022/06/29 11:05:02;;;;;;;;;;;;;;;38.81;22.29;98887.75;4405650;32;34158;-84
2022/06/29 11:13:11;;;;;;;;;;;;;;;37.74;21.98;98881.06;4415593;32;34028;-92
2022/06/29 11:18:11;;;;;;;;;;;;;;;38.43;21.39;98873.78;4418484;32;35339;-82
2022/06/29 11:20:39;;;;;;;;;;;;;;;38.40;21.75;98865.13;4420495;32;33683;-84
2022/06/29 11:23:13;;;;;;;;;;;;;;;38.63;22.43;98866.19;4407114;32;33860;-86
2022/06/29 11:25:42;;;;;;;;;;;;;;;38.79;21.22;98862.66;4386804;32;873506;-86
2022/06/29 11:28:09;;;;;;;;;;;;;;;39.24;20.33;98857.78;4402686;32;34497;-90
2022/06/29 11:30:37;;;;;;;;;;;;;;;39.43;20.87;98849.28;4399689;32;33227;-86
2022/06/29 11:33:10;;;;;;;;;;;;;;;38.33;20.85;98847.81;4415472;32;35086;-87
2022/06/29 11:35:38;;;;;;;;;;;;;;;38.49;20.79;98845.16;4398409;32;34046;-90
2022/06/29 11:38:07;;;;;;;;;;;;;;;39.05;20.81;98846.25;4407398;32;35093;-84
2022/06/29 11:40:39;;;;;;;;;;;;;;;38.47;21.28;98832.81;4407895;32;34514;-83
2022/06/29 11:43:10;;;;;;;;;;;;;;;38.59;20.65;98831.47;4407706;32;33918;-84
2022/06/29 11:45:41;;;;;;;;;;;;;;;38.09;21.85;98841.31;4407444;32;34562;-93
2022/06/29 11:48:18;;;;;;;;;;;;;;;38.68;20.98;98831.31;4420949;32;34271;-86
2022/06/29 11:50:56;;;;;;;;;;;;;;;38.66;21.13;98819.78;4407257;32;32036;-90
2022/06/29 11:53:36;;;;;;;;;;;;;;;38.29;21.13;98827.50;4407171;32;33906;-94
2022/06/29 11:56:11;;;;;;;;;;;;;;;38.81;20.97;98827.28;4421507;32;34333;-90
2022/06/29 11:58:39;;;;;;;;;;;;;;;37.92;20.64;98828.72;4419994;32;34496;-93
2022/06/29 12:01:08;;;;;;;;;;;;;;;37.44;21.61;98822.91;4407606;32;33745;-88
2022/06/29 12:03:36;;;;;;;;;;;;;;;38.34;21.07;98811.63;4420070;32;33995;-81
2022/06/29 12:06:03;;;;;;;;;;;;;;;39.06;19.83;98820.84;4415135;32;35174;-85
2022/06/29 12:08:31;;;;;;;;;;;;;;;39.11;20.11;98820.34;4402922;32;35343;-86
2022/06/29 12:10:59;;;;;;;;;;;;;;;39.46;19.31;98810.13;4393664;32;33526;-87
2022/06/29 12:13:26;;;;;;;;;;;;;;;38.44;20.65;98798.78;4413380;32;33692;-89
2022/06/29 12:15:53;;;;;;;;;;;;;;;38.90;20.46;98808.12;4408242;32;35215;-89
2022/06/29 12:18:21;;;;;;;;;;;;;;;38.57;21.00;98796.44;4420925;32;35454;-84
2022/06/29 12:20:48;;;;;;;;;;;;;;;38.76;19.72;98795.25;4407056;32;33292;-85
2022/06/29 12:23:15;;;;;;;;;;;;;;;37.95;20.84;98795.94;4408638;32;33780;-83
2022/06/29 12:25:43;;;;;;;;;;;;;;;38.51;20.53;98788.97;4412986;32;34223;-93
2022/06/29 12:28:10;;;;;;;;;;;;;;;38.50;20.48;98784.56;4405648;32;35075;-89
2022/06/29 12:30:38;;;;;;;;;;;;;;;38.66;20.69;98795.41;4418546;32;34455;-85
2022/06/29 12:33:09;;;;;;;;;;;;;;;38.85;20.09;98785.28;4420767;32;34096;-93
2022/06/29 12:35:36;;;;;;;;;;;;;;;39.20;19.31;98791.34;4421555;32;33949;-87
2022/06/29 12:38:05;;;;;;;;;;;;;;;37.86;19.89;98767.97;4420287;32;35100;-86
2022/06/29 12:40:33;;;;;;;;;;;;;;;38.55;19.49;98773.22;4421727;32;33067;-93
2022/06/29 12:43:01;;;;;;;;;;;;;;;38.57;20.50;98769.34;4406684;32;34123;-88
2022/06/29 12:45:28;;;;;;;;;;;;;;;38.85;19.62;98779.88;4419679;32;34228;-84
2022/06/29 12:47:56;;;;;;;;;;;;;;;38.88;19.38;98774.09;4405755;32;35332;-95
2022/06/29 12:50:23;;;;;;;;;;;;;;;38.85;19.35;98758.19;4419660;32;33770;-85
2022/06/29 12:52:51;;;;;;;;;;;;;;;38.02;20.09;98771.75;4405883;32;33763;-83
2022/06/29 12:55:19;;;;;;;;;;;;;;;39.18;19.35;98773.37;4403413;32;35578;-85
2022/06/29 12:57:46;;;;;;;;;;;;;;;38.76;19.57;98776.28;4403711;32;35153;-83
2022/06/29 13:00:14;;;;;;;;;;;;;;;38.12;19.62;98772.47;4405387;32;33336;-82
2022/06/29 13:02:42;;;;;;;;;;;;;;;38.02;19.32;98766.34;4404675;32;34099;-83
2022/06/29 13:05:09;;;;;;;;;;;;;;;38.78;19.21;98773.41;4390896;32;34050;-84
2022/06/29 13:07:37;;;;;;;;;;;;;;;39.10;17.75;98767.97;4404834;32;34318;-86
2022/06/29 13:10:08;;;;;;;;;;;;;;;39.66;17.43;98757.13;4404870;32;33099;-83
2022/06/29 13:12:35;;;;;;;;;;;;;;;39.27;17.62;98766.09;4366417;32;34110;-87
2022/06/29 13:15:03;;;;;;;;;;;;;;;38.90;18.23;98758.50;4405291;32;34376;-85
2022/06/29 13:17:30;;;;;;;;;;;;;;;38.93;18.54;98759.00;4407105;32;35133;-84